sensor_id;sensor_type;location;lat;lon;timestamp;P1;durP1;ratioP1;P2;durP2;ratioP2
59504;SDS011;45321;53.200;5.814;2022-08-25T00:00:45;35.95;;;32.33;;
59504;SDS011;45321;53.200;5.814;2022-08-25T00:03:12;35.88;;;32.35;;
59504;SDS011;45321;53.200;5.814;2022-08-25T00:05:38;35.15;;;31.65;;
59504;SDS011;45321;53.200;5.814;2022-08-25T00:08:05;33.28;;;30.10;;
59504;SDS011;45321;53.200;5.814;2022-08-25T00:10:35;32.33;;;29.45;;
59504;SDS011;45321;53.200;5.814;2022-08-25T00:13:02;31.67;;;28.70;;
59504;SDS011;45321;53.200;5.814;2022-08-25T00:15:28;30.88;;;27.92;;
59504;SDS011;45321;53.200;5.814;2022-08-25T00:17:56;30.73;;;27.83;;
59504;SDS011;45321;53.200;5.814;2022-08-25T00:20:23;31.02;;;27.70;;
59504;SDS011;45321;53.200;5.814;2022-08-25T00:22:49;29.85;;;26.92;;
59504;SDS011;45321;53.200;5.814;2022-08-25T00:25:15;28.63;;;25.90;;
59504;SDS011;45321;53.200;5.814;2022-08-25T00:27:41;27.00;;;24.30;;
59504;SDS011;45321;53.200;5.814;2022-08-25T00:30:08;27.70;;;25.00;;
59504;SDS011;45321;53.200;5.814;2022-08-25T00:32:34;26.08;;;23.42;;
59504;SDS011;45321;53.200;5.814;2022-08-25T00:35:00;26.08;;;23.33;;
59504;SDS011;45321;53.200;5.814;2022-08-25T00:37:27;25.33;;;22.77;;
59504;SDS011;45321;53.200;5.814;2022-08-25T00:39:52;28.02;;;24.80;;
59504;SDS011;45321;53.200;5.814;2022-08-25T00:42:21;30.35;;;27.30;;
59504;SDS011;45321;53.200;5.814;2022-08-25T00:44:47;32.15;;;28.85;;
59504;SDS011;45321;53.200;5.814;2022-08-25T00:47:13;35.88;;;32.13;;
59504;SDS011;45321;53.200;5.814;2022-08-25T00:49:50;40.85;;;36.35;;
59504;SDS011;45321;53.200;5.814;2022-08-25T00:52:42;41.78;;;36.80;;
59504;SDS011;45321;53.200;5.814;2022-08-25T00:55:09;44.85;;;36.80;;
59504;SDS011;45321;53.200;5.814;2022-08-25T00:57:46;39.10;;;34.90;;
59504;SDS011;45321;53.200;5.814;2022-08-25T01:00:21;41.10;;;36.13;;
59504;SDS011;45321;53.200;5.814;2022-08-25T01:02:47;44.33;;;39.10;;
59504;SDS011;45321;53.200;5.814;2022-08-25T01:05:14;44.30;;;38.13;;
59504;SDS011;45321;53.200;5.814;2022-08-25T01:07:42;40.60;;;36.28;;
59504;SDS011;45321;53.200;5.814;2022-08-25T01:10:08;36.55;;;32.65;;
59504;SDS011;45321;53.200;5.814;2022-08-25T01:12:36;32.63;;;28.25;;
59504;SDS011;45321;53.200;5.814;2022-08-25T01:15:03;26.50;;;23.67;;
59504;SDS011;45321;53.200;5.814;2022-08-25T01:17:34;24.00;;;21.45;;
59504;SDS011;45321;53.200;5.814;2022-08-25T01:20:15;22.70;;;20.23;;
59504;SDS011;45321;53.200;5.814;2022-08-25T01:22:44;21.00;;;18.98;;
59504;SDS011;45321;53.200;5.814;2022-08-25T01:28:05;17.83;;;15.60;;
59504;SDS011;45321;53.200;5.814;2022-08-25T01:30:31;16.58;;;14.82;;
59504;SDS011;45321;53.200;5.814;2022-08-25T01:32:57;17.17;;;14.93;;
59504;SDS011;45321;53.200;5.814;2022-08-25T01:35:23;16.80;;;14.85;;
59504;SDS011;45321;53.200;5.814;2022-08-25T01:37:49;18.33;;;15.48;;
59504;SDS011;45321;53.200;5.814;2022-08-25T01:40:14;15.85;;;14.20;;
59504;SDS011;45321;53.200;5.814;2022-08-25T01:42:46;15.85;;;13.80;;
59504;SDS011;45321;53.200;5.814;2022-08-25T01:45:28;15.00;;;13.38;;
59504;SDS011;45321;53.200;5.814;2022-08-25T01:47:54;16.05;;;12.68;;
59504;SDS011;45321;53.200;5.814;2022-08-25T01:50:20;14.95;;;12.00;;
59504;SDS011;45321;53.200;5.814;2022-08-25T01:55:45;14.13;;;12.63;;
59504;SDS011;45321;53.200;5.814;2022-08-25T01:58:20;15.23;;;12.18;;
59504;SDS011;45321;53.200;5.814;2022-08-25T02:00:47;13.35;;;11.68;;
59504;SDS011;45321;53.200;5.814;2022-08-25T02:03:15;16.38;;;12.48;;
59504;SDS011;45321;53.200;5.814;2022-08-25T02:05:42;15.52;;;11.38;;
59504;SDS011;45321;53.200;5.814;2022-08-25T02:08:09;13.20;;;11.60;;
59504;SDS011;45321;53.200;5.814;2022-08-25T02:10:35;15.82;;;11.93;;
59504;SDS011;45321;53.200;5.814;2022-08-25T02:13:02;16.42;;;12.05;;
59504;SDS011;45321;53.200;5.814;2022-08-25T02:15:28;12.90;;;11.48;;
59504;SDS011;45321;53.200;5.814;2022-08-25T02:17:54;16.58;;;11.40;;
59504;SDS011;45321;53.200;5.814;2022-08-25T02:20:21;16.02;;;10.45;;
59504;SDS011;45321;53.200;5.814;2022-08-25T02:22:48;12.32;;;10.52;;
59504;SDS011;45321;53.200;5.814;2022-08-25T02:25:17;14.00;;;10.82;;
59504;SDS011;45321;53.200;5.814;2022-08-25T02:27:43;13.60;;;11.05;;
59504;SDS011;45321;53.200;5.814;2022-08-25T02:30:11;11.60;;;10.38;;
59504;SDS011;45321;53.200;5.814;2022-08-25T02:32:38;12.02;;;10.82;;
59504;SDS011;45321;53.200;5.814;2022-08-25T02:35:05;14.80;;;10.00;;
59504;SDS011;45321;53.200;5.814;2022-08-25T02:37:32;11.90;;;10.02;;
59504;SDS011;45321;53.200;5.814;2022-08-25T02:39:58;10.48;;;8.93;;
59504;SDS011;45321;53.200;5.814;2022-08-25T02:42:25;11.50;;;9.50;;
59504;SDS011;45321;53.200;5.814;2022-08-25T02:44:51;11.65;;;9.38;;
59504;SDS011;45321;53.200;5.814;2022-08-25T02:47:18;13.23;;;9.43;;
59504;SDS011;45321;53.200;5.814;2022-08-25T02:49:44;11.70;;;8.88;;
59504;SDS011;45321;53.200;5.814;2022-08-25T02:52:09;11.52;;;9.05;;
59504;SDS011;45321;53.200;5.814;2022-08-25T02:54:35;11.05;;;8.52;;
59504;SDS011;45321;53.200;5.814;2022-08-25T02:57:02;11.63;;;8.65;;
59504;SDS011;45321;53.200;5.814;2022-08-25T02:59:28;10.05;;;8.70;;
59504;SDS011;45321;53.200;5.814;2022-08-25T03:01:54;11.13;;;8.45;;
59504;SDS011;45321;53.200;5.814;2022-08-25T03:04:22;9.10;;;7.97;;
59504;SDS011;45321;53.200;5.814;2022-08-25T03:06:48;11.85;;;8.63;;
59504;SDS011;45321;53.200;5.814;2022-08-25T03:09:14;10.75;;;7.32;;
59504;SDS011;45321;53.200;5.814;2022-08-25T03:11:40;10.07;;;7.43;;
59504;SDS011;45321;53.200;5.814;2022-08-25T03:14:07;12.55;;;7.35;;
59504;SDS011;45321;53.200;5.814;2022-08-25T03:16:35;12.45;;;7.38;;
59504;SDS011;45321;53.200;5.814;2022-08-25T03:19:01;10.50;;;7.15;;
59504;SDS011;45321;53.200;5.814;2022-08-25T03:21:28;11.10;;;7.28;;
59504;SDS011;45321;53.200;5.814;2022-08-25T03:23:54;10.50;;;7.15;;
59504;SDS011;45321;53.200;5.814;2022-08-25T03:26:21;7.97;;;6.45;;
59504;SDS011;45321;53.200;5.814;2022-08-25T03:29:06;10.27;;;6.60;;
59504;SDS011;45321;53.200;5.814;2022-08-25T03:31:32;8.48;;;6.20;;
59504;SDS011;45321;53.200;5.814;2022-08-25T03:33:59;9.65;;;6.22;;
59504;SDS011;45321;53.200;5.814;2022-08-25T03:36:25;9.48;;;6.13;;
59504;SDS011;45321;53.200;5.814;2022-08-25T03:38:52;8.68;;;6.60;;
59504;SDS011;45321;53.200;5.814;2022-08-25T03:41:22;7.15;;;5.75;;
59504;SDS011;45321;53.200;5.814;2022-08-25T03:43:52;9.32;;;6.10;;
59504;SDS011;45321;53.200;5.814;2022-08-25T03:46:23;7.90;;;6.18;;
59504;SDS011;45321;53.200;5.814;2022-08-25T03:48:51;9.85;;;5.85;;
59504;SDS011;45321;53.200;5.814;2022-08-25T03:51:25;7.32;;;5.60;;
59504;SDS011;45321;53.200;5.814;2022-08-25T03:53:55;9.75;;;5.10;;
59504;SDS011;45321;53.200;5.814;2022-08-25T03:56:22;6.97;;;5.07;;
59504;SDS011;45321;53.200;5.814;2022-08-25T03:58:48;9.13;;;5.10;;
59504;SDS011;45321;53.200;5.814;2022-08-25T04:01:14;6.07;;;4.40;;
59504;SDS011;45321;53.200;5.814;2022-08-25T04:03:40;5.85;;;4.68;;
59504;SDS011;45321;53.200;5.814;2022-08-25T04:06:06;7.00;;;4.68;;
59504;SDS011;45321;53.200;5.814;2022-08-25T04:08:33;11.88;;;5.10;;
59504;SDS011;45321;53.200;5.814;2022-08-25T04:11:04;5.85;;;4.10;;
59504;SDS011;45321;53.200;5.814;2022-08-25T04:13:50;7.53;;;4.63;;
59504;SDS011;45321;53.200;5.814;2022-08-25T04:16:18;6.38;;;4.07;;
59504;SDS011;45321;53.200;5.814;2022-08-25T04:18:47;7.43;;;4.35;;
59504;SDS011;45321;53.200;5.814;2022-08-25T04:21:14;8.32;;;4.53;;
59504;SDS011;45321;53.200;5.814;2022-08-25T04:23:42;8.85;;;4.30;;
59504;SDS011;45321;53.200;5.814;2022-08-25T04:26:13;6.18;;;3.95;;
59504;SDS011;45321;53.200;5.814;2022-08-25T04:28:45;7.22;;;4.70;;
59504;SDS011;45321;53.200;5.814;2022-08-25T04:31:11;6.60;;;4.07;;
59504;SDS011;45321;53.200;5.814;2022-08-25T04:33:39;4.50;;;3.88;;
59504;SDS011;45321;53.200;5.814;2022-08-25T04:36:06;5.82;;;4.10;;
59504;SDS011;45321;53.200;5.814;2022-08-25T04:38:36;6.70;;;3.78;;
59504;SDS011;45321;53.200;5.814;2022-08-25T04:41:05;6.38;;;4.18;;
59504;SDS011;45321;53.200;5.814;2022-08-25T04:43:32;9.40;;;4.15;;
59504;SDS011;45321;53.200;5.814;2022-08-25T04:46:03;6.97;;;3.83;;
59504;SDS011;45321;53.200;5.814;2022-08-25T04:48:30;5.30;;;4.15;;
59504;SDS011;45321;53.200;5.814;2022-08-25T04:50:56;5.43;;;4.45;;
59504;SDS011;45321;53.200;5.814;2022-08-25T04:53:22;8.85;;;3.97;;
59504;SDS011;45321;53.200;5.814;2022-08-25T04:55:48;9.07;;;4.50;;
59504;SDS011;45321;53.200;5.814;2022-08-25T04:58:14;5.05;;;3.95;;
59504;SDS011;45321;53.200;5.814;2022-08-25T05:00:41;6.82;;;3.92;;
59504;SDS011;45321;53.200;5.814;2022-08-25T05:03:08;6.45;;;4.55;;
59504;SDS011;45321;53.200;5.814;2022-08-25T05:05:37;8.30;;;4.00;;
59504;SDS011;45321;53.200;5.814;2022-08-25T05:08:06;8.45;;;3.67;;
59504;SDS011;45321;53.200;5.814;2022-08-25T05:10:32;5.63;;;3.55;;
59504;SDS011;45321;53.200;5.814;2022-08-25T05:12:58;9.63;;;4.20;;
59504;SDS011;45321;53.200;5.814;2022-08-25T05:15:25;9.50;;;3.97;;
59504;SDS011;45321;53.200;5.814;2022-08-25T05:18:09;8.00;;;4.00;;
59504;SDS011;45321;53.200;5.814;2022-08-25T05:20:36;7.20;;;4.05;;
59504;SDS011;45321;53.200;5.814;2022-08-25T05:23:02;9.25;;;4.18;;
59504;SDS011;45321;53.200;5.814;2022-08-25T05:25:28;6.57;;;3.97;;
59504;SDS011;45321;53.200;5.814;2022-08-25T05:27:54;8.55;;;3.90;;
59504;SDS011;45321;53.200;5.814;2022-08-25T05:30:20;5.50;;;4.15;;
59504;SDS011;45321;53.200;5.814;2022-08-25T05:32:45;6.07;;;3.70;;
59504;SDS011;45321;53.200;5.814;2022-08-25T05:35:11;5.93;;;4.10;;
59504;SDS011;45321;53.200;5.814;2022-08-25T05:37:37;6.72;;;3.78;;
59504;SDS011;45321;53.200;5.814;2022-08-25T05:40:04;10.50;;;4.55;;
59504;SDS011;45321;53.200;5.814;2022-08-25T05:42:30;4.82;;;4.15;;
59504;SDS011;45321;53.200;5.814;2022-08-25T05:44:56;4.38;;;3.97;;
59504;SDS011;45321;53.200;5.814;2022-08-25T05:47:22;7.22;;;3.97;;
59504;SDS011;45321;53.200;5.814;2022-08-25T05:49:48;6.65;;;3.47;;
59504;SDS011;45321;53.200;5.814;2022-08-25T05:52:13;6.68;;;3.33;;
59504;SDS011;45321;53.200;5.814;2022-08-25T05:54:39;4.95;;;3.50;;
59504;SDS011;45321;53.200;5.814;2022-08-25T05:57:05;5.85;;;4.20;;
59504;SDS011;45321;53.200;5.814;2022-08-25T05:59:31;8.57;;;4.00;;
59504;SDS011;45321;53.200;5.814;2022-08-25T06:01:57;11.32;;;3.95;;
59504;SDS011;45321;53.200;5.814;2022-08-25T06:04:41;6.57;;;3.70;;
59504;SDS011;45321;53.200;5.814;2022-08-25T06:07:07;7.88;;;3.75;;
59504;SDS011;45321;53.200;5.814;2022-08-25T06:09:36;6.57;;;4.03;;
59504;SDS011;45321;53.200;5.814;2022-08-25T06:12:03;5.45;;;4.30;;
59504;SDS011;45321;53.200;5.814;2022-08-25T06:14:29;10.13;;;4.35;;
59504;SDS011;45321;53.200;5.814;2022-08-25T06:16:54;5.28;;;4.18;;
59504;SDS011;45321;53.200;5.814;2022-08-25T06:19:21;11.60;;;3.88;;
59504;SDS011;45321;53.200;5.814;2022-08-25T06:21:47;8.10;;;3.60;;
59504;SDS011;45321;53.200;5.814;2022-08-25T06:24:13;9.98;;;3.85;;
59504;SDS011;45321;53.200;5.814;2022-08-25T06:26:39;7.43;;;4.30;;
59504;SDS011;45321;53.200;5.814;2022-08-25T06:29:05;8.52;;;4.10;;
59504;SDS011;45321;53.200;5.814;2022-08-25T06:31:30;8.18;;;3.78;;
59504;SDS011;45321;53.200;5.814;2022-08-25T06:33:56;6.10;;;3.92;;
59504;SDS011;45321;53.200;5.814;2022-08-25T06:36:22;8.73;;;3.88;;
59504;SDS011;45321;53.200;5.814;2022-08-25T06:38:48;9.32;;;4.15;;
59504;SDS011;45321;53.200;5.814;2022-08-25T06:41:14;7.50;;;3.83;;
59504;SDS011;45321;53.200;5.814;2022-08-25T06:43:40;10.05;;;3.75;;
59504;SDS011;45321;53.200;5.814;2022-08-25T06:46:10;6.57;;;4.32;;
59504;SDS011;45321;53.200;5.814;2022-08-25T06:48:41;6.40;;;3.72;;
59504;SDS011;45321;53.200;5.814;2022-08-25T06:51:08;15.73;;;4.18;;
59504;SDS011;45321;53.200;5.814;2022-08-25T06:53:36;7.00;;;3.47;;
59504;SDS011;45321;53.200;5.814;2022-08-25T06:56:02;7.47;;;3.60;;
59504;SDS011;45321;53.200;5.814;2022-08-25T06:58:28;7.05;;;3.63;;
59504;SDS011;45321;53.200;5.814;2022-08-25T07:00:54;8.57;;;4.60;;
59504;SDS011;45321;53.200;5.814;2022-08-25T07:03:20;9.75;;;3.70;;
59504;SDS011;45321;53.200;5.814;2022-08-25T07:05:49;7.32;;;3.47;;
59504;SDS011;45321;53.200;5.814;2022-08-25T07:08:16;8.35;;;3.53;;
59504;SDS011;45321;53.200;5.814;2022-08-25T07:10:43;8.05;;;4.35;;
59504;SDS011;45321;53.200;5.814;2022-08-25T07:13:09;7.40;;;3.10;;
59504;SDS011;45321;53.200;5.814;2022-08-25T07:15:38;4.43;;;3.00;;
59504;SDS011;45321;53.200;5.814;2022-08-25T07:18:04;7.70;;;3.20;;
59504;SDS011;45321;53.200;5.814;2022-08-25T07:20:32;5.03;;;3.45;;
59504;SDS011;45321;53.200;5.814;2022-08-25T07:22:59;5.38;;;3.22;;
59504;SDS011;45321;53.200;5.814;2022-08-25T07:25:24;9.18;;;3.38;;
59504;SDS011;45321;53.200;5.814;2022-08-25T07:27:50;6.70;;;3.15;;
59504;SDS011;45321;53.200;5.814;2022-08-25T07:30:16;5.05;;;3.03;;
59504;SDS011;45321;53.200;5.814;2022-08-25T07:32:42;5.82;;;2.80;;
59504;SDS011;45321;53.200;5.814;2022-08-25T07:35:08;5.43;;;3.08;;
59504;SDS011;45321;53.200;5.814;2022-08-25T07:37:47;5.60;;;2.90;;
59504;SDS011;45321;53.200;5.814;2022-08-25T07:40:32;12.00;;;3.30;;
59504;SDS011;45321;53.200;5.814;2022-08-25T07:45:28;3.45;;;2.88;;
59504;SDS011;45321;53.200;5.814;2022-08-25T07:47:57;7.05;;;2.80;;
59504;SDS011;45321;53.200;5.814;2022-08-25T07:50:31;8.82;;;2.92;;
59504;SDS011;45321;53.200;5.814;2022-08-25T07:52:58;3.70;;;2.50;;
59504;SDS011;45321;53.200;5.814;2022-08-25T07:55:25;4.75;;;2.70;;
59504;SDS011;45321;53.200;5.814;2022-08-25T07:57:52;8.70;;;2.95;;
59504;SDS011;45321;53.200;5.814;2022-08-25T08:00:19;5.18;;;2.75;;
59504;SDS011;45321;53.200;5.814;2022-08-25T08:02:45;5.68;;;2.35;;
59504;SDS011;45321;53.200;5.814;2022-08-25T08:05:11;6.68;;;2.45;;
59504;SDS011;45321;53.200;5.814;2022-08-25T08:07:38;4.93;;;2.60;;
59504;SDS011;45321;53.200;5.814;2022-08-25T08:10:06;6.00;;;2.83;;
59504;SDS011;45321;53.200;5.814;2022-08-25T08:12:33;5.88;;;2.70;;
59504;SDS011;45321;53.200;5.814;2022-08-25T08:15:00;8.65;;;2.53;;
59504;SDS011;45321;53.200;5.814;2022-08-25T08:17:26;4.65;;;2.33;;
59504;SDS011;45321;53.200;5.814;2022-08-25T08:19:53;5.20;;;2.50;;
59504;SDS011;45321;53.200;5.814;2022-08-25T08:22:18;5.70;;;3.13;;
59504;SDS011;45321;53.200;5.814;2022-08-25T08:24:45;6.40;;;2.55;;
59504;SDS011;45321;53.200;5.814;2022-08-25T08:27:12;8.63;;;2.78;;
59504;SDS011;45321;53.200;5.814;2022-08-25T08:29:38;9.05;;;2.53;;
59504;SDS011;45321;53.200;5.814;2022-08-25T08:32:06;6.00;;;2.58;;
59504;SDS011;45321;53.200;5.814;2022-08-25T08:34:33;4.35;;;2.80;;
59504;SDS011;45321;53.200;5.814;2022-08-25T08:37:00;5.70;;;2.38;;
59504;SDS011;45321;53.200;5.814;2022-08-25T08:39:27;4.82;;;2.70;;
59504;SDS011;45321;53.200;5.814;2022-08-25T08:49:54;8.07;;;2.60;;
59504;SDS011;45321;53.200;5.814;2022-08-25T08:52:40;5.35;;;2.63;;
59504;SDS011;45321;53.200;5.814;2022-08-25T08:55:29;5.00;;;2.60;;
59504;SDS011;45321;53.200;5.814;2022-08-25T09:00:24;6.90;;;2.50;;
59504;SDS011;45321;53.200;5.814;2022-08-25T09:03:04;6.00;;;2.40;;
59504;SDS011;45321;53.200;5.814;2022-08-25T09:05:35;5.50;;;2.55;;
59504;SDS011;45321;53.200;5.814;2022-08-25T09:08:13;4.10;;;2.50;;
59504;SDS011;45321;53.200;5.814;2022-08-25T09:25:51;6.35;;;2.17;;
59504;SDS011;45321;53.200;5.814;2022-08-25T09:30:53;4.53;;;2.25;;
59504;SDS011;45321;53.200;5.814;2022-08-25T09:33:30;6.53;;;2.47;;
59504;SDS011;45321;53.200;5.814;2022-08-25T09:36:01;6.10;;;2.60;;
59504;SDS011;45321;53.200;5.814;2022-08-25T09:38:28;4.22;;;2.10;;
59504;SDS011;45321;53.200;5.814;2022-08-25T09:41:03;7.80;;;2.30;;
59504;SDS011;45321;53.200;5.814;2022-08-25T09:43:51;7.10;;;2.03;;
59504;SDS011;45321;53.200;5.814;2022-08-25T09:46:25;5.72;;;1.80;;
59504;SDS011;45321;53.200;5.814;2022-08-25T09:51:28;4.20;;;1.90;;
59504;SDS011;45321;53.200;5.814;2022-08-25T09:54:03;4.43;;;1.67;;
59504;SDS011;45321;53.200;5.814;2022-08-25T09:56:52;5.28;;;1.70;;
59504;SDS011;45321;53.200;5.814;2022-08-25T10:01:54;5.95;;;1.67;;
59504;SDS011;45321;53.200;5.814;2022-08-25T10:04:26;4.85;;;1.92;;
59504;SDS011;45321;53.200;5.814;2022-08-25T10:06:52;4.03;;;1.90;;
59504;SDS011;45321;53.200;5.814;2022-08-25T10:09:24;4.18;;;1.58;;
59504;SDS011;45321;53.200;5.814;2022-08-25T10:12:28;3.80;;;1.85;;
59504;SDS011;45321;53.200;5.814;2022-08-25T10:14:59;4.35;;;1.60;;
59504;SDS011;45321;53.200;5.814;2022-08-25T10:17:39;3.80;;;1.60;;
59504;SDS011;45321;53.200;5.814;2022-08-25T10:20:18;6.88;;;2.28;;
59504;SDS011;45321;53.200;5.814;2022-08-25T10:22:46;9.05;;;1.52;;
59504;SDS011;45321;53.200;5.814;2022-08-25T10:25:14;3.13;;;1.52;;
59504;SDS011;45321;53.200;5.814;2022-08-25T10:35:56;4.90;;;1.48;;
59504;SDS011;45321;53.200;5.814;2022-08-25T10:41:11;7.60;;;1.60;;
59504;SDS011;45321;53.200;5.814;2022-08-25T10:49:57;4.90;;;1.35;;
59504;SDS011;45321;53.200;5.814;2022-08-25T10:57:59;4.18;;;1.60;;
59504;SDS011;45321;53.200;5.814;2022-08-25T11:00:59;7.28;;;1.75;;
59504;SDS011;45321;53.200;5.814;2022-08-25T11:03:50;3.15;;;1.60;;
59504;SDS011;45321;53.200;5.814;2022-08-25T11:06:24;7.22;;;1.80;;
59504;SDS011;45321;53.200;5.814;2022-08-25T11:09:06;4.45;;;1.63;;
59504;SDS011;45321;53.200;5.814;2022-08-25T11:11:36;6.35;;;1.80;;
59504;SDS011;45321;53.200;5.814;2022-08-25T11:14:08;6.25;;;2.10;;
59504;SDS011;45321;53.200;5.814;2022-08-25T11:16:42;2.88;;;1.48;;
59504;SDS011;45321;53.200;5.814;2022-08-25T11:19:19;2.72;;;1.75;;
59504;SDS011;45321;53.200;5.814;2022-08-25T11:30:21;5.40;;;1.63;;
59504;SDS011;45321;53.200;5.814;2022-08-25T11:32:51;9.30;;;2.00;;
59504;SDS011;45321;53.200;5.814;2022-08-25T11:35:19;3.95;;;1.52;;
59504;SDS011;45321;53.200;5.814;2022-08-25T11:41:10;2.53;;;1.67;;
59504;SDS011;45321;53.200;5.814;2022-08-25T11:55:03;4.82;;;1.98;;
59504;SDS011;45321;53.200;5.814;2022-08-25T11:57:34;3.33;;;1.90;;
59504;SDS011;45321;53.200;5.814;2022-08-25T12:00:14;3.63;;;1.42;;
59504;SDS011;45321;53.200;5.814;2022-08-25T12:06:15;4.90;;;1.63;;
59504;SDS011;45321;53.200;5.814;2022-08-25T12:11:46;2.88;;;1.45;;
59504;SDS011;45321;53.200;5.814;2022-08-25T12:21:49;4.95;;;1.60;;
59504;SDS011;45321;53.200;5.814;2022-08-25T12:24:20;4.90;;;1.77;;
59504;SDS011;45321;53.200;5.814;2022-08-25T12:27:01;3.63;;;1.30;;
59504;SDS011;45321;53.200;5.814;2022-08-25T12:29:44;2.30;;;1.58;;
59504;SDS011;45321;53.200;5.814;2022-08-25T12:37:34;5.72;;;2.58;;
59504;SDS011;45321;53.200;5.814;2022-08-25T12:40:37;2.72;;;1.80;;
59504;SDS011;45321;53.200;5.814;2022-08-25T12:45:47;3.83;;;1.52;;
59504;SDS011;45321;53.200;5.814;2022-08-25T12:50:59;4.85;;;1.67;;
59504;SDS011;45321;53.200;5.814;2022-08-25T12:56:54;4.00;;;1.75;;
59504;SDS011;45321;53.200;5.814;2022-08-25T13:07:13;2.40;;;1.60;;
59504;SDS011;45321;53.200;5.814;2022-08-25T13:12:50;2.55;;;1.50;;
59504;SDS011;45321;53.200;5.814;2022-08-25T13:15:36;4.15;;;1.10;;
59504;SDS011;45321;53.200;5.814;2022-08-25T13:20:54;3.33;;;2.03;;
59504;SDS011;45321;53.200;5.814;2022-08-25T13:23:51;2.40;;;1.50;;
59504;SDS011;45321;53.200;5.814;2022-08-25T13:26:27;2.60;;;1.33;;
59504;SDS011;45321;53.200;5.814;2022-08-25T13:28:56;2.58;;;1.58;;
59504;SDS011;45321;53.200;5.814;2022-08-25T13:31:25;1.85;;;1.35;;
59504;SDS011;45321;53.200;5.814;2022-08-25T13:33:56;2.53;;;1.40;;
59504;SDS011;45321;53.200;5.814;2022-08-25T13:36:25;4.30;;;1.35;;
59504;SDS011;45321;53.200;5.814;2022-08-25T13:39:14;4.07;;;1.48;;
59504;SDS011;45321;53.200;5.814;2022-08-25T13:41:46;2.03;;;1.10;;
59504;SDS011;45321;53.200;5.814;2022-08-25T13:44:15;1.80;;;1.20;;
59504;SDS011;45321;53.200;5.814;2022-08-25T13:46:45;4.60;;;1.20;;
59504;SDS011;45321;53.200;5.814;2022-08-25T13:49:23;4.72;;;1.23;;
59504;SDS011;45321;53.200;5.814;2022-08-25T13:51:50;3.08;;;1.30;;
59504;SDS011;45321;53.200;5.814;2022-08-25T13:54:27;3.05;;;1.08;;
59504;SDS011;45321;53.200;5.814;2022-08-25T13:57:06;5.50;;;1.52;;
59504;SDS011;45321;53.200;5.814;2022-08-25T13:59:49;2.30;;;1.10;;
59504;SDS011;45321;53.200;5.814;2022-08-25T14:05:15;4.53;;;1.42;;
59504;SDS011;45321;53.200;5.814;2022-08-25T14:07:56;2.55;;;1.40;;
59504;SDS011;45321;53.200;5.814;2022-08-25T14:13:14;2.35;;;1.50;;
59504;SDS011;45321;53.200;5.814;2022-08-25T14:15:53;4.80;;;1.50;;
59504;SDS011;45321;53.200;5.814;2022-08-25T14:18:27;2.22;;;1.30;;
59504;SDS011;45321;53.200;5.814;2022-08-25T14:20:57;2.65;;;1.50;;
59504;SDS011;45321;53.200;5.814;2022-08-25T14:23:30;6.30;;;2.03;;
59504;SDS011;45321;53.200;5.814;2022-08-25T14:25:56;2.70;;;1.40;;
59504;SDS011;45321;53.200;5.814;2022-08-25T14:28:23;2.28;;;1.33;;
59504;SDS011;45321;53.200;5.814;2022-08-25T14:31:27;3.15;;;1.35;;
59504;SDS011;45321;53.200;5.814;2022-08-25T14:33:51;1.55;;;1.10;;
59504;SDS011;45321;53.200;5.814;2022-08-25T14:36:19;4.68;;;1.40;;
59504;SDS011;45321;53.200;5.814;2022-08-25T14:38:45;3.22;;;1.30;;
59504;SDS011;45321;53.200;5.814;2022-08-25T14:41:10;1.90;;;1.52;;
59504;SDS011;45321;53.200;5.814;2022-08-25T14:43:36;2.97;;;1.25;;
59504;SDS011;45321;53.200;5.814;2022-08-25T14:46:09;2.47;;;1.08;;
59504;SDS011;45321;53.200;5.814;2022-08-25T14:48:40;3.70;;;1.40;;
59504;SDS011;45321;53.200;5.814;2022-08-25T14:51:08;4.57;;;1.35;;
59504;SDS011;45321;53.200;5.814;2022-08-25T14:53:36;5.22;;;1.30;;
59504;SDS011;45321;53.200;5.814;2022-08-25T14:56:02;4.07;;;1.58;;
59504;SDS011;45321;53.200;5.814;2022-08-25T14:58:28;2.92;;;1.42;;
59504;SDS011;45321;53.200;5.814;2022-08-25T15:00:53;2.33;;;1.50;;
59504;SDS011;45321;53.200;5.814;2022-08-25T15:03:24;4.03;;;1.42;;
59504;SDS011;45321;53.200;5.814;2022-08-25T15:08:20;2.33;;;1.00;;
59504;SDS011;45321;53.200;5.814;2022-08-25T15:11:04;2.35;;;1.35;;
59504;SDS011;45321;53.200;5.814;2022-08-25T15:13:33;2.45;;;1.10;;
59504;SDS011;45321;53.200;5.814;2022-08-25T15:15:59;3.08;;;1.25;;
59504;SDS011;45321;53.200;5.814;2022-08-25T15:18:25;1.90;;;1.15;;
59504;SDS011;45321;53.200;5.814;2022-08-25T15:20:50;3.90;;;1.35;;
59504;SDS011;45321;53.200;5.814;2022-08-25T15:23:16;2.85;;;1.00;;
59504;SDS011;45321;53.200;5.814;2022-08-25T15:25:43;1.77;;;0.85;;
59504;SDS011;45321;53.200;5.814;2022-08-25T15:28:11;1.35;;;1.10;;
59504;SDS011;45321;53.200;5.814;2022-08-25T15:30:37;3.70;;;1.20;;
59504;SDS011;45321;53.200;5.814;2022-08-25T15:33:03;3.08;;;1.13;;
59504;SDS011;45321;53.200;5.814;2022-08-25T15:35:29;6.55;;;1.23;;
59504;SDS011;45321;53.200;5.814;2022-08-25T15:37:55;4.30;;;1.02;;
59504;SDS011;45321;53.200;5.814;2022-08-25T15:40:20;9.60;;;1.20;;
59504;SDS011;45321;53.200;5.814;2022-08-25T15:42:46;2.20;;;0.88;;
59504;SDS011;45321;53.200;5.814;2022-08-25T15:45:12;2.75;;;1.23;;
59504;SDS011;45321;53.200;5.814;2022-08-25T15:47:38;3.15;;;0.98;;
59504;SDS011;45321;53.200;5.814;2022-08-25T15:50:08;2.95;;;1.00;;
59504;SDS011;45321;53.200;5.814;2022-08-25T15:52:38;2.53;;;1.13;;
59504;SDS011;45321;53.200;5.814;2022-08-25T15:55:05;3.22;;;1.20;;
59504;SDS011;45321;53.200;5.814;2022-08-25T15:57:32;4.85;;;1.30;;
59504;SDS011;45321;53.200;5.814;2022-08-25T15:59:58;4.38;;;1.13;;
59504;SDS011;45321;53.200;5.814;2022-08-25T16:02:23;2.17;;;1.40;;
59504;SDS011;45321;53.200;5.814;2022-08-25T16:04:49;3.80;;;1.33;;
59504;SDS011;45321;53.200;5.814;2022-08-25T16:07:17;4.50;;;1.60;;
59504;SDS011;45321;53.200;5.814;2022-08-25T16:09:44;4.60;;;1.80;;
59504;SDS011;45321;53.200;5.814;2022-08-25T16:12:10;6.28;;;1.63;;
59504;SDS011;45321;53.200;5.814;2022-08-25T16:14:36;5.40;;;1.65;;
59504;SDS011;45321;53.200;5.814;2022-08-25T16:17:03;6.63;;;1.42;;
59504;SDS011;45321;53.200;5.814;2022-08-25T16:19:29;9.95;;;1.60;;
59504;SDS011;45321;53.200;5.814;2022-08-25T16:21:55;7.07;;;1.52;;
59504;SDS011;45321;53.200;5.814;2022-08-25T16:24:22;6.60;;;1.38;;
59504;SDS011;45321;53.200;5.814;2022-08-25T16:26:48;3.85;;;1.52;;
59504;SDS011;45321;53.200;5.814;2022-08-25T16:29:15;2.13;;;1.55;;
59504;SDS011;45321;53.200;5.814;2022-08-25T16:31:44;3.03;;;1.17;;
59504;SDS011;45321;53.200;5.814;2022-08-25T16:34:10;4.88;;;1.70;;
59504;SDS011;45321;53.200;5.814;2022-08-25T16:36:36;1.90;;;1.35;;
59504;SDS011;45321;53.200;5.814;2022-08-25T16:39:03;2.38;;;1.30;;
59504;SDS011;45321;53.200;5.814;2022-08-25T16:41:29;2.80;;;1.30;;
59504;SDS011;45321;53.200;5.814;2022-08-25T16:43:59;3.30;;;1.58;;
59504;SDS011;45321;53.200;5.814;2022-08-25T16:46:35;1.92;;;1.30;;
59504;SDS011;45321;53.200;5.814;2022-08-25T16:49:02;2.97;;;1.10;;
59504;SDS011;45321;53.200;5.814;2022-08-25T16:51:30;1.95;;;1.38;;
59504;SDS011;45321;53.200;5.814;2022-08-25T16:53:57;2.38;;;1.45;;
59504;SDS011;45321;53.200;5.814;2022-08-25T16:56:41;4.68;;;1.88;;
59504;SDS011;45321;53.200;5.814;2022-08-25T16:59:08;2.50;;;1.15;;
59504;SDS011;45321;53.200;5.814;2022-08-25T17:01:35;4.13;;;1.27;;
59504;SDS011;45321;53.200;5.814;2022-08-25T17:04:02;2.42;;;1.65;;
59504;SDS011;45321;53.200;5.814;2022-08-25T17:06:29;3.63;;;1.40;;
59504;SDS011;45321;53.200;5.814;2022-08-25T17:08:59;3.13;;;1.33;;
59504;SDS011;45321;53.200;5.814;2022-08-25T17:11:26;2.30;;;1.50;;
59504;SDS011;45321;53.200;5.814;2022-08-25T17:13:58;4.15;;;1.52;;